logo
Rechercher aéroport 
image banner adimage banner adimage banner ad
image banner ad

LOBC - Landesklinikum Hainburg Kh

Situé à District Bruck An Der Leitha, Austria

ICAO - , IATA -

Données fournies par Airmate  

Information générale

Coordonnées: N48°8'36" E16°57'32"
Élévation : 595 feet MSL.
 
Voir autres Aéroports à Lower Austria

Données opérationnelles

Special qualification required
Heure actuelle UTC:
Heure actuelle locale:
Météo à : LZIB - Bratislava/M. R. Stefanik ( 19 km )
METAR: LZIB 081430Z 12009KT 9999 FEW012 01/M01 Q1017 NOSIG
Voir NOTAMs / SUP AIP / TFR affectant cet aéroport [VIEW]
Fréquences de communication: [VIEW]

Pistes:

Coordonnées de l'aéroport

Adresse: District Bruck An Der Leitha Austria

Vue satellite de LOBC